createdAt,value
2023-01-13T00:00:14.821Z,11.70
2023-01-13T00:01:18.832Z,11.70
2023-01-13T00:02:20.479Z,11.70
2023-01-13T00:03:22.117Z,11.70
2023-01-13T00:04:24.059Z,11.70
2023-01-13T00:05:26.893Z,11.70
2023-01-13T00:06:29.260Z,11.80
2023-01-13T00:07:31.180Z,11.70
2023-01-13T00:08:33.356Z,11.70
2023-01-13T00:09:34.729Z,11.70
2023-01-13T00:10:36.579Z,11.80
2023-01-13T00:11:38.237Z,11.80
2023-01-13T00:12:43.547Z,11.80
2023-01-13T00:13:45.218Z,11.80
2023-01-13T00:14:47.092Z,11.80
2023-01-13T00:15:59.155Z,11.80
2023-01-13T00:17:00.768Z,11.80
2023-01-13T00:18:02.402Z,11.70
2023-01-13T00:19:03.878Z,11.80
2023-01-13T00:20:06.005Z,11.80
2023-01-13T00:21:21.378Z,11.80
2023-01-13T00:22:23.627Z,11.80
2023-01-13T00:23:25.445Z,11.80
2023-01-13T00:24:27.104Z,11.70
2023-01-13T00:25:28.889Z,11.80
2023-01-13T00:26:33.823Z,11.80
2023-01-13T00:27:36.991Z,11.80
2023-01-13T00:28:38.979Z,11.80
2023-01-13T00:29:40.817Z,11.70
2023-01-13T00:30:42.200Z,11.80
2023-01-13T00:31:43.800Z,11.80
2023-01-13T00:32:45.171Z,11.80
2023-01-13T00:33:48.944Z,11.90
2023-01-13T00:34:50.340Z,11.90
2023-01-13T00:35:59.371Z,11.90
2023-01-13T00:37:00.973Z,11.80
2023-01-13T00:38:02.393Z,11.80
2023-01-13T00:39:03.845Z,11.80
2023-01-13T00:40:05.869Z,11.70
2023-01-13T00:41:12.390Z,11.60
2023-01-13T00:42:32.648Z,11.60
2023-01-13T00:43:36.354Z,11.70
2023-01-13T00:44:37.857Z,11.70
2023-01-13T00:45:39.252Z,11.70
2023-01-13T00:46:40.742Z,11.80
2023-01-13T00:47:42.193Z,11.80
2023-01-13T00:48:43.974Z,11.80
2023-01-13T00:49:45.417Z,11.80
2023-01-13T00:50:47.177Z,11.80
2023-01-13T00:51:48.733Z,11.80
2023-01-13T00:52:50.385Z,11.70
2023-01-13T00:53:52.595Z,11.80
2023-01-13T00:54:54.064Z,11.80
2023-01-13T00:56:14.173Z,11.70
2023-01-13T00:57:15.579Z,11.70
2023-01-13T00:58:16.957Z,11.70
2023-01-13T00:59:18.793Z,11.70
2023-01-13T01:00:21.161Z,11.70
2023-01-13T01:01:23.858Z,11.80
2023-01-13T01:02:25.306Z,11.70
2023-01-13T01:03:27.362Z,11.70
2023-01-13T01:04:28.785Z,11.70
2023-01-13T01:05:33.095Z,11.80
2023-01-13T01:06:34.542Z,11.80
2023-01-13T01:07:36.023Z,11.80
2023-01-13T01:08:37.517Z,11.80
2023-01-13T01:09:40.344Z,11.70
2023-01-13T01:10:41.747Z,11.70
2023-01-13T01:11:44.410Z,11.70
2023-01-13T01:12:45.860Z,11.60
2023-01-13T01:13:48.034Z,11.60
2023-01-13T01:14:49.419Z,11.60
2023-01-13T01:15:51.067Z,11.50
2023-01-13T01:16:53.095Z,11.50
2023-01-13T01:17:54.479Z,11.50
2023-01-13T01:18:56.311Z,11.60
2023-01-13T01:19:57.729Z,11.60
2023-01-13T01:21:02.649Z,11.60
2023-01-13T01:22:04.411Z,11.70
2023-01-13T01:23:05.840Z,11.70
2023-01-13T01:24:07.446Z,11.70
2023-01-13T01:25:09.756Z,11.80
2023-01-13T01:26:19.777Z,11.80
2023-01-13T01:27:21.605Z,11.70
2023-01-13T01:28:23.402Z,11.70
2023-01-13T01:29:24.849Z,11.60
2023-01-13T01:30:26.312Z,11.60
2023-01-13T01:31:31.798Z,11.70
2023-01-13T01:32:34.778Z,11.60
2023-01-13T01:33:36.328Z,11.60
2023-01-13T01:34:39.232Z,11.60
2023-01-13T01:35:41.253Z,11.60
2023-01-13T01:36:42.958Z,11.60
2023-01-13T01:37:44.373Z,11.50
2023-01-13T01:38:47.039Z,11.60
2023-01-13T01:39:48.425Z,11.50
2023-01-13T01:40:50.302Z,11.60
2023-01-13T01:42:10.505Z,11.60
2023-01-13T01:43:40.940Z,11.60
2023-01-13T01:44:42.522Z,11.60
2023-01-13T01:45:43.959Z,11.50
2023-01-13T01:46:45.447Z,11.50
2023-01-13T01:47:53.168Z,11.50
2023-01-13T01:48:59.318Z,11.50
2023-01-13T01:50:03.049Z,11.50
2023-01-13T01:51:09.566Z,11.50
2023-01-13T01:52:19.528Z,11.50
2023-01-13T01:53:24.498Z,11.60
2023-01-13T01:54:52.751Z,11.60
2023-01-13T01:55:55.464Z,11.60
2023-01-13T01:56:57.020Z,11.50
2023-01-13T01:58:12.693Z,11.40
2023-01-13T01:59:14.878Z,11.30
2023-01-13T02:00:16.800Z,11.30
2023-01-13T02:01:18.702Z,11.30
2023-01-13T02:02:20.708Z,11.30
2023-01-13T02:03:22.505Z,11.30
2023-01-13T02:04:29.229Z,11.30
2023-01-13T02:05:30.713Z,11.30
2023-01-13T02:06:32.608Z,11.30
2023-01-13T02:07:36.918Z,11.40
2023-01-13T02:08:40.477Z,11.40
2023-01-13T02:09:41.855Z,11.40
2023-01-13T02:10:45.651Z,11.50
2023-01-13T02:12:05.824Z,11.50
2023-01-13T02:13:11.862Z,11.40
2023-01-13T02:14:13.645Z,11.50
2023-01-13T02:15:26.334Z,11.40
2023-01-13T02:16:28.091Z,11.50
2023-01-13T02:17:56.726Z,11.40
2023-01-13T02:19:28.226Z,11.40
2023-01-13T02:20:47.269Z,11.40
2023-01-13T02:22:27.048Z,11.40
2023-01-13T02:24:05.047Z,11.50
2023-01-13T02:25:19.230Z,11.50
2023-01-13T02:26:23.769Z,11.40
2023-01-13T02:27:48.034Z,11.40
2023-01-13T02:29:33.847Z,11.40
2023-01-13T02:31:01.254Z,11.40
2023-01-13T02:32:12.717Z,11.30
2023-01-13T02:33:37.956Z,11.40
2023-01-13T02:34:49.511Z,11.40
2023-01-13T02:35:52.672Z,11.40
2023-01-13T02:37:14.793Z,11.40
2023-01-13T02:38:19.211Z,11.40
2023-01-13T02:39:29.814Z,11.30
2023-01-13T02:40:56.682Z,11.40
2023-01-13T02:42:26.742Z,11.40
2023-01-13T02:43:58.256Z,11.40
2023-01-13T02:45:11.521Z,11.30
2023-01-13T02:46:28.416Z,11.30
2023-01-13T02:47:32.464Z,11.30
2023-01-13T02:48:36.730Z,11.30
2023-01-13T02:49:46.564Z,11.30
2023-01-13T02:51:05.175Z,11.30
2023-01-13T02:52:14.336Z,11.30
2023-01-13T02:53:28.618Z,11.30
2023-01-13T02:54:31.652Z,11.30
2023-01-13T02:55:54.277Z,11.30
2023-01-13T02:56:58.956Z,11.30
2023-01-13T02:58:03.150Z,11.30
2023-01-13T02:59:05.307Z,11.40
2023-01-13T03:00:10.634Z,11.40
2023-01-13T03:01:12.395Z,11.30
2023-01-13T03:02:20.065Z,11.30
2023-01-13T03:03:21.809Z,11.30
2023-01-13T03:04:44.651Z,11.40
2023-01-13T03:05:48.883Z,11.40
2023-01-13T03:07:04.594Z,11.30
2023-01-13T03:08:34.765Z,11.30
2023-01-13T03:09:45.392Z,11.30
2023-01-13T03:11:07.570Z,11.30
2023-01-13T03:12:20.054Z,11.30
2023-01-13T03:13:42.491Z,11.30
2023-01-13T03:14:55.304Z,11.20
2023-01-13T03:16:06.224Z,11.30
2023-01-13T03:17:24.014Z,11.30
2023-01-13T03:18:45.907Z,11.30
2023-01-13T03:20:04.540Z,11.30
2023-01-13T03:21:21.388Z,11.30
2023-01-13T03:22:37.672Z,11.20
2023-01-13T03:23:44.205Z,11.30
2023-01-13T03:24:56.952Z,11.30
2023-01-13T03:26:08.025Z,11.20
2023-01-13T03:27:30.612Z,11.20
2023-01-13T03:28:48.460Z,11.20
2023-01-13T03:29:58.251Z,11.20
2023-01-13T03:31:06.688Z,11.20
2023-01-13T03:32:14.419Z,11.20
2023-01-13T03:33:18.792Z,11.20
2023-01-13T03:34:25.259Z,11.20
2023-01-13T03:35:34.452Z,11.20
2023-01-13T03:36:39.061Z,11.30
2023-01-13T03:37:45.611Z,11.20
2023-01-13T03:38:53.068Z,11.30
2023-01-13T03:40:00.156Z,11.20
2023-01-13T03:41:18.911Z,11.30
2023-01-13T03:42:24.915Z,11.30
2023-01-13T03:43:55.176Z,11.30
2023-01-13T03:45:14.344Z,11.30
2023-01-13T03:47:03.956Z,11.40
2023-01-13T03:48:10.524Z,11.30
2023-01-13T03:49:17.604Z,11.30
2023-01-13T03:50:28.030Z,11.30
2023-01-13T03:51:32.801Z,11.20
2023-01-13T03:52:53.368Z,11.30
2023-01-13T03:54:01.435Z,11.30
2023-01-13T03:55:13.532Z,11.20
2023-01-13T03:56:41.737Z,11.20
2023-01-13T03:58:04.147Z,11.20
2023-01-13T03:59:08.516Z,11.20
2023-01-13T04:00:12.501Z,11.20
2023-01-13T04:01:46.366Z,11.20
2023-01-13T04:02:53.693Z,11.20
2023-01-13T04:04:00.146Z,11.20
2023-01-13T04:05:04.449Z,11.20
2023-01-13T04:06:13.887Z,11.20
2023-01-13T04:07:36.676Z,11.20
2023-01-13T04:08:44.650Z,11.20
2023-01-13T04:10:05.063Z,11.20
2023-01-13T04:11:14.272Z,11.10
2023-01-13T04:12:52.863Z,11.10
2023-01-13T04:13:56.023Z,11.10
2023-01-13T04:14:57.547Z,11.10
2023-01-13T04:16:00.328Z,11.10
2023-01-13T04:17:01.903Z,11.10
2023-01-13T04:18:24.386Z,11.10
2023-01-13T04:19:25.840Z,11.20
2023-01-13T04:20:27.427Z,11.20
2023-01-13T04:21:30.705Z,11.10
2023-01-13T04:22:32.220Z,11.10
2023-01-13T04:23:34.055Z,11.20
2023-01-13T04:24:37.101Z,11.20
2023-01-13T04:25:38.571Z,11.10
2023-01-13T04:26:40.006Z,11.10
2023-01-13T04:27:41.406Z,11.20
2023-01-13T04:28:43.031Z,11.20
2023-01-13T04:29:44.539Z,11.20
2023-01-13T04:30:46.651Z,11.20
2023-01-13T04:31:48.573Z,11.20
2023-01-13T04:32:50.214Z,11.20
2023-01-13T04:33:51.938Z,11.20
2023-01-13T04:34:53.436Z,11.20
2023-01-13T04:35:55.222Z,11.10
2023-01-13T04:36:56.817Z,11.10
2023-01-13T04:38:01.546Z,11.10
2023-01-13T04:39:04.029Z,11.10
2023-01-13T04:40:06.463Z,11.10
2023-01-13T04:41:07.844Z,11.10
2023-01-13T04:42:09.489Z,11.10
2023-01-13T04:43:11.087Z,11.10
2023-01-13T04:44:12.737Z,11.10
2023-01-13T04:45:14.500Z,11.10
2023-01-13T04:46:16.079Z,11.00
2023-01-13T04:47:17.527Z,11.10
2023-01-13T04:48:19.192Z,11.10
2023-01-13T04:49:20.773Z,11.10
2023-01-13T04:50:22.789Z,11.10
2023-01-13T04:51:24.340Z,11.10
2023-01-13T04:52:25.897Z,11.10
2023-01-13T04:53:27.340Z,11.10
2023-01-13T04:54:28.736Z,11.10
2023-01-13T04:55:31.721Z,11.10
2023-01-13T04:56:33.974Z,11.00
2023-01-13T04:57:35.379Z,11.00
2023-01-13T04:58:37.154Z,11.00
2023-01-13T04:59:38.541Z,11.00
2023-01-13T05:00:39.996Z,11.00
2023-01-13T05:01:41.576Z,11.00
2023-01-13T05:02:43.083Z,11.00
2023-01-13T05:03:44.499Z,11.00
2023-01-13T05:04:47.304Z,11.00
2023-01-13T05:05:51.886Z,11.00
2023-01-13T05:06:53.407Z,11.00
2023-01-13T05:07:55.209Z,11.00
2023-01-13T05:08:57.223Z,11.00
2023-01-13T05:09:59.262Z,11.00
2023-01-13T05:11:01.212Z,11.00
2023-01-13T05:12:21.328Z,11.00
2023-01-13T05:13:41.573Z,11.00
2023-01-13T05:15:01.793Z,11.00
2023-01-13T05:16:21.994Z,11.00
2023-01-13T05:17:25.303Z,11.00
2023-01-13T05:18:28.441Z,11.00
2023-01-13T05:19:35.131Z,10.90
2023-01-13T05:20:36.633Z,10.90
2023-01-13T05:21:56.978Z,10.90
2023-01-13T05:23:16.965Z,10.90
2023-01-13T05:24:37.308Z,10.90
2023-01-13T05:25:44.577Z,11.00
2023-01-13T05:26:46.629Z,11.00
2023-01-13T05:27:58.967Z,10.90
2023-01-13T05:29:00.359Z,11.00
2023-01-13T05:30:01.846Z,10.90
2023-01-13T05:31:03.830Z,11.00
2023-01-13T05:32:07.926Z,11.00
2023-01-13T05:33:10.342Z,11.00
2023-01-13T05:34:11.772Z,11.00
2023-01-13T05:35:13.265Z,11.00
2023-01-13T05:36:14.765Z,11.00
2023-01-13T05:37:16.710Z,10.90
2023-01-13T05:38:18.791Z,10.90
2023-01-13T05:39:20.161Z,10.90
2023-01-13T05:40:40.843Z,10.90
2023-01-13T05:42:02.837Z,10.90
2023-01-13T05:43:20.312Z,10.90
2023-01-13T05:44:21.818Z,10.90
2023-01-13T05:45:23.747Z,10.80
2023-01-13T05:46:25.251Z,10.80
2023-01-13T05:47:26.688Z,10.90
2023-01-13T05:48:42.010Z,10.90
2023-01-13T05:49:43.541Z,10.90
2023-01-13T05:50:46.387Z,10.90
2023-01-13T05:51:47.788Z,10.90
2023-01-13T05:52:50.343Z,10.80
2023-01-13T05:53:52.176Z,10.80
2023-01-13T05:54:54.205Z,10.80
2023-01-13T05:55:56.201Z,10.80
2023-01-13T05:56:57.899Z,10.80
2023-01-13T05:57:59.483Z,10.80
2023-01-13T05:59:00.870Z,10.90
2023-01-13T06:00:02.676Z,10.90
2023-01-13T06:01:13.216Z,10.90
2023-01-13T06:02:14.667Z,10.90
2023-01-13T06:03:17.029Z,10.90
2023-01-13T06:04:18.610Z,10.90
2023-01-13T06:05:20.054Z,10.90
2023-01-13T06:06:21.750Z,10.90
2023-01-13T06:07:23.680Z,11.00
2023-01-13T06:08:25.809Z,11.00
2023-01-13T06:09:27.216Z,11.00
2023-01-13T06:10:30.085Z,11.00
2023-01-13T06:11:31.593Z,11.00
2023-01-13T06:12:33.152Z,11.00
2023-01-13T06:13:34.657Z,11.00
2023-01-13T06:14:42.777Z,10.90
2023-01-13T06:15:44.497Z,10.90
2023-01-13T06:16:46.474Z,10.90
2023-01-13T06:17:48.327Z,10.90
2023-01-13T06:18:49.749Z,11.00
2023-01-13T06:19:51.201Z,11.00
2023-01-13T06:20:52.968Z,11.00
2023-01-13T06:21:57.866Z,10.90
2023-01-13T06:23:00.053Z,10.90
2023-01-13T06:24:01.779Z,11.00
2023-01-13T06:25:04.437Z,11.00
2023-01-13T06:26:18.825Z,11.00
2023-01-13T06:27:22.078Z,10.90
2023-01-13T06:28:23.475Z,10.90
2023-01-13T06:29:24.932Z,11.00
2023-01-13T06:30:38.505Z,11.00
2023-01-13T06:31:40.042Z,11.00
2023-01-13T06:32:46.229Z,11.00
2023-01-13T06:33:55.785Z,11.00
2023-01-13T06:35:05.318Z,11.00
2023-01-13T06:36:12.707Z,11.00
2023-01-13T06:37:16.437Z,11.00
2023-01-13T06:38:19.848Z,11.00
2023-01-13T06:39:24.875Z,11.00
2023-01-13T06:40:26.396Z,11.00
2023-01-13T06:41:52.397Z,11.00
2023-01-13T06:43:16.395Z,11.00
2023-01-13T06:44:19.685Z,11.00
2023-01-13T06:45:23.236Z,11.00
2023-01-13T06:46:25.752Z,11.00
2023-01-13T06:47:27.231Z,11.00
2023-01-13T06:48:35.243Z,11.00
2023-01-13T06:49:36.793Z,10.90
2023-01-13T06:50:38.436Z,10.90
2023-01-13T06:51:39.841Z,11.00
2023-01-13T06:52:41.251Z,11.00
2023-01-13T06:53:43.063Z,11.00
2023-01-13T06:54:44.589Z,11.00
2023-01-13T06:55:46.115Z,11.00
2023-01-13T06:56:47.577Z,10.90
2023-01-13T06:57:57.740Z,10.90
2023-01-13T06:58:59.253Z,11.00
2023-01-13T07:00:00.796Z,11.00
2023-01-13T07:01:02.350Z,11.00
2023-01-13T07:02:04.163Z,11.10
2023-01-13T07:03:16.598Z,11.10
2023-01-13T07:04:18.900Z,11.00
2023-01-13T07:05:21.090Z,11.00
2023-01-13T07:06:22.599Z,11.00
2023-01-13T07:07:24.202Z,11.10
2023-01-13T07:08:25.778Z,11.00
2023-01-13T07:09:27.339Z,11.00
2023-01-13T07:10:28.835Z,11.10
2023-01-13T07:11:30.255Z,11.00
2023-01-13T07:12:51.631Z,11.10
2023-01-13T07:14:11.787Z,11.00
2023-01-13T07:15:19.320Z,11.10
2023-01-13T07:16:20.933Z,11.10
2023-01-13T07:17:25.361Z,11.10
2023-01-13T07:18:28.900Z,11.10
2023-01-13T07:19:30.731Z,11.10
2023-01-13T07:20:32.463Z,11.10
2023-01-13T07:21:33.973Z,11.10
2023-01-13T07:22:36.083Z,11.10
2023-01-13T07:23:40.066Z,11.10
2023-01-13T07:24:41.683Z,11.10
2023-01-13T07:25:43.151Z,11.10
2023-01-13T07:26:44.853Z,11.10
2023-01-13T07:27:46.440Z,11.00
2023-01-13T07:28:47.859Z,11.10
2023-01-13T07:29:49.381Z,11.10
2023-01-13T07:30:50.865Z,11.10
2023-01-13T07:31:52.440Z,11.10
2023-01-13T07:32:54.169Z,11.10
2023-01-13T07:33:55.651Z,11.20
2023-01-13T07:34:58.668Z,11.20
2023-01-13T07:36:03.124Z,11.20
2023-01-13T07:37:04.770Z,11.10
2023-01-13T07:38:06.857Z,11.20
2023-01-13T07:39:08.501Z,11.20
2023-01-13T07:40:10.784Z,11.20
2023-01-13T07:41:32.575Z,11.10
2023-01-13T07:42:52.732Z,11.10
2023-01-13T07:43:54.091Z,11.20
2023-01-13T07:44:55.544Z,11.20
2023-01-13T07:45:58.791Z,11.20
2023-01-13T07:47:00.683Z,11.20
2023-01-13T07:48:02.099Z,11.20
2023-01-13T07:49:04.403Z,11.20
2023-01-13T07:50:06.767Z,11.10
2023-01-13T07:51:09.991Z,11.10
2023-01-13T07:52:11.386Z,11.10
2023-01-13T07:53:13.141Z,11.20
2023-01-13T07:54:14.767Z,11.10
2023-01-13T07:55:16.567Z,11.10
2023-01-13T07:56:19.821Z,11.00
2023-01-13T07:57:21.374Z,11.00
2023-01-13T07:58:23.407Z,10.90
2023-01-13T07:59:24.863Z,10.80
2023-01-13T08:00:26.435Z,10.70
2023-01-13T08:01:28.748Z,10.70
2023-01-13T08:02:30.694Z,10.60
2023-01-13T08:03:32.114Z,10.60
2023-01-13T08:04:34.392Z,10.50
2023-01-13T08:05:36.578Z,10.50
2023-01-13T08:06:40.882Z,10.40
2023-01-13T08:07:42.407Z,10.40
2023-01-13T08:08:44.085Z,10.40
2023-01-13T08:09:45.635Z,10.40
2023-01-13T08:10:47.361Z,10.40
2023-01-13T08:12:08.773Z,10.40
2023-01-13T08:13:20.248Z,10.40
2023-01-13T08:14:22.218Z,10.40
2023-01-13T08:15:24.000Z,10.40
2023-01-13T08:16:26.141Z,10.20
2023-01-13T08:17:27.661Z,10.20
2023-01-13T08:18:29.474Z,10.20
2023-01-13T08:19:31.105Z,10.20
2023-01-13T08:20:32.802Z,10.20
2023-01-13T08:21:34.173Z,10.10
2023-01-13T08:22:35.927Z,10.20
2023-01-13T08:23:37.968Z,10.10
2023-01-13T08:24:39.475Z,10.10
2023-01-13T08:25:41.035Z,10.10
2023-01-13T08:26:42.471Z,10.10
2023-01-13T08:27:44.099Z,10.10
2023-01-13T08:28:46.157Z,10.10
2023-01-13T08:29:47.619Z,10.10
2023-01-13T08:30:49.320Z,10.10
2023-01-13T08:31:50.821Z,10.10
2023-01-13T08:32:52.611Z,10.00
2023-01-13T08:33:54.148Z,10.10
2023-01-13T08:34:55.595Z,10.10
2023-01-13T08:35:58.198Z,10.10
2023-01-13T08:36:59.938Z,10.10
2023-01-13T08:38:01.420Z,10.10
2023-01-13T08:39:03.341Z,10.20
2023-01-13T08:40:06.256Z,10.20
2023-01-13T08:41:12.904Z,10.10
2023-01-13T08:42:14.531Z,10.20
2023-01-13T08:43:16.133Z,10.10
2023-01-13T08:44:17.711Z,10.10
2023-01-13T08:45:19.196Z,10.10
2023-01-13T08:46:20.687Z,10.10
2023-01-13T08:47:22.586Z,10.00
2023-01-13T08:48:24.279Z,10.10
2023-01-13T08:49:26.153Z,10.10
2023-01-13T08:50:27.843Z,10.10
2023-01-13T08:51:29.293Z,10.10
2023-01-13T08:52:30.959Z,10.20
2023-01-13T08:53:32.819Z,10.20
2023-01-13T08:54:34.388Z,10.20
2023-01-13T08:55:36.267Z,10.20
2023-01-13T08:56:39.051Z,10.20
2023-01-13T08:57:40.518Z,10.20
2023-01-13T08:58:41.926Z,10.30
2023-01-13T08:59:43.536Z,10.30
2023-01-13T09:00:45.198Z,10.30
2023-01-13T09:01:46.878Z,10.30
2023-01-13T09:02:48.583Z,10.30
2023-01-13T09:03:50.035Z,10.30
2023-01-13T09:04:51.967Z,10.30
2023-01-13T09:05:53.625Z,10.30
2023-01-13T09:06:56.043Z,10.30
2023-01-13T09:07:57.507Z,10.30
2023-01-13T09:08:59.771Z,10.30
2023-01-13T09:10:02.089Z,10.30
2023-01-13T09:11:23.842Z,10.40
2023-01-13T09:12:44.180Z,10.40
2023-01-13T09:13:45.867Z,10.40
2023-01-13T09:14:47.533Z,10.40
2023-01-13T09:15:49.113Z,10.50
2023-01-13T09:16:50.793Z,10.50
2023-01-13T09:17:52.472Z,10.50
2023-01-13T09:18:54.299Z,10.60
2023-01-13T09:19:55.692Z,10.60
2023-01-13T09:20:59.238Z,10.70
2023-01-13T09:22:00.650Z,10.70
2023-01-13T09:23:02.211Z,10.70
2023-01-13T09:24:03.940Z,10.80
2023-01-13T09:25:05.699Z,10.80
2023-01-13T09:26:08.588Z,10.80
2023-01-13T09:27:11.496Z,10.80
2023-01-13T09:28:12.955Z,10.80
2023-01-13T09:29:14.625Z,10.80
2023-01-13T09:30:16.286Z,10.90
2023-01-13T09:31:18.141Z,10.90
2023-01-13T09:32:19.684Z,10.90
2023-01-13T09:33:39.823Z,10.90
2023-01-13T09:35:00.102Z,11.00
2023-01-13T09:36:01.803Z,11.10
2023-01-13T09:37:04.946Z,11.10
2023-01-13T09:38:07.221Z,11.00
2023-01-13T09:39:08.826Z,11.10
2023-01-13T09:40:19.213Z,11.00
2023-01-13T09:41:42.353Z,11.00
2023-01-13T09:43:15.390Z,11.10
2023-01-13T09:44:24.819Z,11.10
2023-01-13T09:45:32.931Z,11.10
2023-01-13T09:46:44.067Z,11.00
2023-01-13T09:48:06.792Z,11.00
2023-01-13T09:49:22.196Z,11.00
2023-01-13T09:50:59.323Z,11.00
2023-01-13T09:52:14.958Z,11.00
2023-01-13T09:53:39.950Z,11.10
2023-01-13T09:54:44.338Z,11.00
2023-01-13T09:55:46.979Z,11.00
2023-01-13T09:56:48.515Z,11.10
2023-01-13T09:57:50.066Z,11.10
2023-01-13T09:58:52.659Z,11.10
2023-01-13T09:59:54.777Z,11.10
2023-01-13T10:00:58.956Z,11.10
2023-01-13T10:02:04.525Z,11.10
2023-01-13T10:03:22.326Z,11.10
2023-01-13T10:04:23.821Z,11.20
2023-01-13T10:05:37.950Z,11.10
2023-01-13T10:06:42.489Z,11.00
2023-01-13T10:07:58.713Z,11.00
2023-01-13T10:09:00.258Z,11.00
2023-01-13T10:10:03.607Z,10.90
2023-01-13T10:11:34.940Z,10.90
2023-01-13T10:12:55.371Z,10.90
2023-01-13T10:14:01.466Z,10.90
2023-01-13T10:15:03.527Z,10.90
2023-01-13T10:16:10.982Z,10.90
2023-01-13T10:17:19.253Z,10.80
2023-01-13T10:18:38.075Z,10.80
2023-01-13T10:19:55.192Z,10.70
2023-01-13T10:21:31.899Z,10.70
2023-01-13T10:23:15.168Z,10.70
2023-01-13T10:24:23.373Z,10.70
2023-01-13T10:25:51.827Z,10.70
2023-01-13T10:26:59.717Z,10.70
2023-01-13T10:28:13.062Z,10.70
2023-01-13T10:29:27.205Z,10.80
2023-01-13T10:30:34.775Z,10.70
2023-01-13T10:31:37.149Z,10.80
2023-01-13T10:32:40.921Z,10.80
2023-01-13T10:33:42.807Z,10.80
2023-01-13T10:34:57.319Z,10.80
2023-01-13T10:35:59.487Z,10.80
2023-01-13T10:37:06.441Z,10.80
2023-01-13T10:38:17.233Z,10.80
2023-01-13T10:39:20.282Z,10.80
2023-01-13T10:40:21.735Z,10.80
2023-01-13T10:41:27.579Z,10.80
2023-01-13T10:42:29.211Z,10.80
2023-01-13T10:43:31.365Z,10.90
2023-01-13T10:44:45.960Z,11.00
2023-01-13T10:46:12.044Z,11.00
2023-01-13T10:47:35.787Z,11.00
2023-01-13T10:48:43.415Z,11.10
2023-01-13T10:50:19.067Z,11.10
2023-01-13T10:51:25.182Z,11.10
2023-01-13T10:52:32.341Z,11.20
2023-01-13T10:53:50.935Z,11.30
2023-01-13T10:54:54.515Z,11.30
2023-01-13T10:56:01.954Z,11.40
2023-01-13T10:57:21.197Z,11.50
2023-01-13T10:58:24.785Z,11.60
2023-01-13T10:59:27.393Z,11.70
2023-01-13T11:00:34.090Z,11.70
2023-01-13T11:01:35.713Z,11.80
2023-01-13T11:02:37.469Z,11.90
2023-01-13T11:03:44.409Z,11.90
2023-01-13T11:05:02.713Z,11.90
2023-01-13T11:06:04.873Z,12.10
2023-01-13T11:07:21.556Z,12.10
2023-01-13T11:08:26.356Z,12.10
2023-01-13T11:09:30.479Z,12.20
2023-01-13T11:10:33.331Z,12.30
2023-01-13T11:11:34.917Z,12.40
2023-01-13T11:12:48.385Z,12.50
2023-01-13T11:14:11.379Z,12.50
2023-01-13T11:15:18.845Z,12.50
2023-01-13T11:16:20.480Z,12.40
2023-01-13T11:17:34.435Z,12.30
2023-01-13T11:19:12.310Z,12.30
2023-01-13T11:20:30.996Z,12.30
2023-01-13T11:21:56.944Z,12.40
2023-01-13T11:23:03.019Z,12.40
2023-01-13T11:24:26.801Z,12.50
2023-01-13T11:25:41.528Z,12.50
2023-01-13T11:26:58.964Z,12.60
2023-01-13T11:28:16.655Z,12.70
2023-01-13T11:29:30.438Z,12.70
2023-01-13T11:30:37.254Z,12.70
2023-01-13T11:31:52.134Z,12.80
2023-01-13T11:33:15.334Z,12.90
2023-01-13T11:34:49.372Z,12.90
2023-01-13T11:36:12.373Z,12.90
2023-01-13T11:37:25.497Z,13.00
2023-01-13T11:38:43.031Z,13.10
2023-01-13T11:39:45.526Z,13.20
2023-01-13T11:40:49.853Z,13.20
2023-01-13T11:42:23.993Z,13.10
2023-01-13T11:43:50.220Z,13.00
2023-01-13T11:45:12.659Z,13.00
2023-01-13T11:46:14.414Z,12.90
2023-01-13T11:47:20.976Z,12.80
2023-01-13T11:48:30.180Z,12.80
2023-01-13T11:49:33.540Z,12.70
2023-01-13T11:50:55.152Z,12.60
2023-01-13T11:52:12.998Z,12.60
2023-01-13T11:53:39.367Z,12.60
2023-01-13T11:54:51.474Z,12.60
2023-01-13T11:56:29.140Z,12.70
2023-01-13T11:57:33.988Z,12.70
2023-01-13T11:58:57.159Z,12.80
2023-01-13T12:00:04.409Z,12.90
2023-01-13T12:01:40.092Z,12.90
2023-01-13T12:03:06.044Z,12.90
2023-01-13T12:04:18.093Z,12.80
2023-01-13T12:05:26.104Z,12.70
2023-01-13T12:06:41.229Z,12.70
2023-01-13T12:08:23.456Z,12.50
2023-01-13T12:09:39.317Z,12.40
2023-01-13T12:11:02.848Z,12.40
2023-01-13T12:12:33.151Z,12.30
2023-01-13T12:13:46.856Z,12.30
2023-01-13T12:15:22.469Z,12.30
2023-01-13T12:16:31.602Z,12.40
2023-01-13T12:17:52.904Z,12.30
2023-01-13T12:19:09.178Z,12.30
2023-01-13T12:20:25.155Z,12.20
2023-01-13T12:21:38.075Z,12.10
2023-01-13T12:22:41.636Z,12.00
2023-01-13T12:23:45.844Z,12.00
2023-01-13T12:24:53.168Z,12.00
2023-01-13T12:25:59.571Z,11.90
2023-01-13T12:27:07.086Z,11.80
2023-01-13T12:28:20.624Z,11.80
2023-01-13T12:29:38.498Z,11.70
2023-01-13T12:30:50.699Z,11.60
2023-01-13T12:31:52.673Z,11.60
2023-01-13T12:33:01.763Z,11.60
2023-01-13T12:34:36.379Z,11.60
2023-01-13T12:35:55.809Z,11.60
2023-01-13T12:37:16.326Z,11.60
2023-01-13T12:38:34.611Z,11.60
2023-01-13T12:39:44.593Z,11.60
2023-01-13T12:42:06.142Z,11.50
2023-01-13T12:43:26.544Z,11.60
2023-01-13T12:44:28.383Z,11.70
2023-01-13T12:45:31.767Z,11.70
2023-01-13T12:46:33.756Z,11.70
2023-01-13T12:47:35.192Z,11.70
2023-01-13T12:48:57.022Z,11.80
2023-01-13T12:50:26.239Z,11.80
2023-01-13T12:51:58.093Z,11.80
2023-01-13T12:53:32.489Z,11.90
2023-01-13T12:54:54.461Z,11.90
2023-01-13T12:56:21.799Z,11.90
2023-01-13T12:57:27.358Z,11.90
2023-01-13T12:58:29.515Z,11.90
2023-01-13T12:59:31.961Z,11.80
2023-01-13T13:00:43.973Z,11.80
2023-01-13T13:01:50.296Z,11.80
2023-01-13T13:03:19.302Z,11.80
2023-01-13T13:04:41.606Z,11.70
2023-01-13T13:06:01.328Z,11.60
2023-01-13T13:07:10.439Z,11.30
2023-01-13T13:08:24.209Z,11.30
2023-01-13T13:09:40.819Z,11.10
2023-01-13T13:11:32.599Z,11.10
2023-01-13T13:13:01.747Z,11.00
2023-01-13T13:14:11.696Z,10.70
2023-01-13T13:15:24.648Z,10.50
2023-01-13T13:16:26.547Z,10.30
2023-01-13T13:17:33.666Z,10.30
2023-01-13T13:18:35.213Z,10.20
2023-01-13T13:19:37.046Z,10.10
2023-01-13T13:20:55.272Z,9.80
2023-01-13T13:22:19.090Z,9.40
2023-01-13T13:23:40.238Z,9.20
2023-01-13T13:24:44.167Z,9.00
2023-01-13T13:26:23.981Z,8.90
2023-01-13T13:27:31.849Z,8.90
2023-01-13T13:28:38.361Z,8.90
2023-01-13T13:29:55.820Z,8.90
2023-01-13T13:31:14.752Z,8.90
2023-01-13T13:32:29.710Z,8.90
2023-01-13T13:33:39.100Z,9.00
2023-01-13T13:35:01.957Z,9.00
2023-01-13T13:36:26.247Z,9.00
2023-01-13T13:38:00.444Z,9.00
2023-01-13T13:39:38.947Z,8.90
2023-01-13T13:41:04.243Z,8.80
2023-01-13T13:42:59.471Z,8.70
2023-01-13T13:44:30.977Z,8.70
2023-01-13T13:45:51.147Z,8.70
2023-01-13T13:47:02.036Z,8.80
2023-01-13T13:48:23.053Z,8.70
2023-01-13T13:49:40.597Z,8.80
2023-01-13T13:50:49.335Z,8.80
2023-01-13T13:52:10.912Z,8.80
2023-01-13T13:53:12.788Z,8.80
2023-01-13T13:54:19.357Z,8.80
2023-01-13T13:55:26.096Z,8.80
2023-01-13T13:56:29.090Z,8.80
2023-01-13T13:57:39.557Z,8.90
2023-01-13T13:58:41.716Z,8.90
2023-01-13T13:59:43.601Z,8.90
2023-01-13T14:00:48.660Z,8.90
2023-01-13T14:02:01.105Z,8.90
2023-01-13T14:03:26.804Z,9.00
2023-01-13T14:04:32.544Z,9.00
2023-01-13T14:05:36.612Z,9.00
2023-01-13T14:06:38.069Z,9.00
2023-01-13T14:07:49.042Z,8.90
2023-01-13T14:08:50.880Z,8.90
2023-01-13T14:09:54.451Z,8.90
2023-01-13T14:10:56.633Z,9.00
2023-01-13T14:12:03.941Z,9.00
2023-01-13T14:13:28.648Z,9.00
2023-01-13T14:14:30.447Z,9.00
2023-01-13T14:15:36.282Z,9.00
2023-01-13T14:16:38.210Z,8.90
2023-01-13T14:17:39.782Z,8.90
2023-01-13T14:18:47.806Z,9.00
2023-01-13T14:19:55.672Z,8.90
2023-01-13T14:21:02.015Z,8.90
2023-01-13T14:22:05.500Z,8.80
2023-01-13T14:23:07.191Z,8.80
2023-01-13T14:24:17.556Z,8.80
2023-01-13T14:25:28.167Z,8.80
2023-01-13T14:26:32.144Z,8.80
2023-01-13T14:27:36.591Z,8.80
2023-01-13T14:28:40.460Z,8.80
2023-01-13T14:29:42.375Z,8.80
2023-01-13T14:30:44.310Z,8.80
2023-01-13T14:31:47.143Z,8.80
2023-01-13T14:32:49.167Z,8.90
2023-01-13T14:33:59.245Z,9.00
2023-01-13T14:35:00.867Z,8.90
2023-01-13T14:36:15.914Z,9.00
2023-01-13T14:37:36.517Z,9.00
2023-01-13T14:38:38.289Z,9.00
2023-01-13T14:39:42.591Z,8.90
2023-01-13T14:40:46.387Z,9.00